createdAt,value
2018-11-07T00:00:34.261Z,0.00
2018-11-07T00:01:34.188Z,0.00
2018-11-07T00:02:34.146Z,0.00
2018-11-07T00:03:34.118Z,0.00
2018-11-07T00:04:34.091Z,0.00
2018-11-07T00:05:34.061Z,0.00
2018-11-07T00:06:34.031Z,0.00
2018-11-07T00:07:34.004Z,0.00
2018-11-07T00:08:34.110Z,0.00
2018-11-07T00:09:33.944Z,0.00
2018-11-07T00:10:33.915Z,0.00
2018-11-07T00:11:33.887Z,0.00
2018-11-07T00:12:33.858Z,0.00
2018-11-07T00:13:33.828Z,0.00
2018-11-07T00:14:33.804Z,0.00
2018-11-07T00:15:33.771Z,0.00
2018-11-07T00:16:33.743Z,0.00
2018-11-07T00:17:33.719Z,0.00
2018-11-07T00:18:33.686Z,0.00
2018-11-07T00:19:33.740Z,0.00
2018-11-07T00:20:33.628Z,0.00
2018-11-07T00:21:33.599Z,0.00
2018-11-07T00:22:33.568Z,0.00
2018-11-07T00:23:33.542Z,0.00
2018-11-07T00:24:33.515Z,0.00
2018-11-07T00:25:33.485Z,0.00
2018-11-07T00:26:33.591Z,0.00
2018-11-07T00:27:33.425Z,0.00
2018-11-07T00:28:33.396Z,0.00
2018-11-07T00:29:33.366Z,0.00
2018-11-07T00:30:33.338Z,0.00
2018-11-07T00:31:33.315Z,0.00
2018-11-07T00:32:33.290Z,0.00
2018-11-07T00:33:33.250Z,0.00
2018-11-07T00:34:33.221Z,0.00
2018-11-07T00:35:33.195Z,0.00
2018-11-07T00:36:33.172Z,0.00
2018-11-07T00:37:33.138Z,0.00
2018-11-07T00:38:33.110Z,0.00
2018-11-07T00:39:33.084Z,0.00
2018-11-07T00:40:33.049Z,0.00
2018-11-07T00:41:33.019Z,0.00
2018-11-07T00:42:32.991Z,0.00
2018-11-07T00:43:32.961Z,0.00
2018-11-07T00:44:32.934Z,0.00
2018-11-07T00:45:32.906Z,0.00
2018-11-07T00:46:32.883Z,0.00
2018-11-07T00:47:32.845Z,0.00
2018-11-07T00:48:32.816Z,0.00
2018-11-07T00:49:32.786Z,0.00
2018-11-07T00:50:32.766Z,0.00
2018-11-07T00:51:32.729Z,0.00
2018-11-07T00:52:32.702Z,0.00
2018-11-07T00:53:32.671Z,0.00
2018-11-07T00:54:32.653Z,0.00
2018-11-07T00:55:32.613Z,0.00
2018-11-07T00:56:32.597Z,0.00
2018-11-07T00:57:32.567Z,0.00
2018-11-07T00:58:32.722Z,0.00
2018-11-07T00:59:32.502Z,0.00
2018-11-07T01:00:32.507Z,0.00
2018-11-07T01:01:32.440Z,0.00
2018-11-07T01:02:32.410Z,0.00
2018-11-07T01:03:32.381Z,0.00
2018-11-07T01:04:32.352Z,0.00
2018-11-07T01:05:32.322Z,0.00
2018-11-07T01:06:32.295Z,0.00
2018-11-07T01:07:32.265Z,0.00
2018-11-07T01:08:32.242Z,0.00
2018-11-07T01:09:32.311Z,0.00
2018-11-07T01:10:32.180Z,0.00
2018-11-07T01:11:32.148Z,0.00
2018-11-07T01:12:32.122Z,0.00
2018-11-07T01:13:32.100Z,0.00
2018-11-07T01:14:32.067Z,0.00
2018-11-07T01:15:32.033Z,0.00
2018-11-07T01:16:32.029Z,0.00
2018-11-07T01:17:31.974Z,0.00
2018-11-07T01:18:31.945Z,0.00
2018-11-07T01:19:31.916Z,0.00
2018-11-07T01:20:31.887Z,0.00
2018-11-07T01:21:31.857Z,0.00
2018-11-07T01:22:31.829Z,0.00
2018-11-07T01:23:31.799Z,0.00
2018-11-07T01:24:31.772Z,0.00
2018-11-07T01:25:31.744Z,0.00
2018-11-07T01:26:31.721Z,0.00
2018-11-07T01:27:31.684Z,0.00
2018-11-07T01:28:31.654Z,0.00
2018-11-07T01:29:31.624Z,0.00
2018-11-07T01:30:31.598Z,0.00
2018-11-07T01:31:31.568Z,0.00
2018-11-07T01:32:31.538Z,0.00
2018-11-07T01:33:31.508Z,0.00
2018-11-07T01:34:31.479Z,0.00
2018-11-07T01:35:31.457Z,0.00
2018-11-07T01:36:31.423Z,0.00
2018-11-07T01:37:31.393Z,0.00
2018-11-07T01:38:31.369Z,0.00
2018-11-07T01:39:31.334Z,0.00
2018-11-07T01:40:31.305Z,0.00
2018-11-07T01:41:31.278Z,0.00
2018-11-07T01:42:31.249Z,0.00
2018-11-07T01:43:31.218Z,0.00
2018-11-07T01:44:31.339Z,0.00
2018-11-07T01:45:31.159Z,0.00
2018-11-07T01:46:31.130Z,0.00
2018-11-07T01:47:31.100Z,0.00
2018-11-07T01:48:31.090Z,0.00
2018-11-07T01:49:31.060Z,0.00
2018-11-07T01:50:31.013Z,0.00
2018-11-07T01:51:30.984Z,0.00
2018-11-07T01:52:30.954Z,0.00
2018-11-07T01:53:30.925Z,0.00
2018-11-07T01:54:30.898Z,0.00
2018-11-07T01:55:30.867Z,0.00
2018-11-07T01:56:30.838Z,0.00
2018-11-07T01:57:30.810Z,0.00
2018-11-07T01:58:30.784Z,0.00
2018-11-07T01:59:30.754Z,0.00
2018-11-07T02:00:30.723Z,0.00
2018-11-07T02:01:30.691Z,0.00
2018-11-07T02:02:30.703Z,0.00
2018-11-07T02:03:30.633Z,0.00
2018-11-07T02:04:30.607Z,0.00
2018-11-07T02:05:30.586Z,0.00
2018-11-07T02:06:30.546Z,0.00
2018-11-07T02:07:30.517Z,0.00
2018-11-07T02:08:30.488Z,0.00
2018-11-07T02:09:30.469Z,0.00
2018-11-07T02:10:30.430Z,0.00
2018-11-07T02:11:30.404Z,0.00
2018-11-07T02:12:30.373Z,0.00
2018-11-07T02:13:30.342Z,0.00
2018-11-07T02:14:30.315Z,0.00
2018-11-07T02:15:30.283Z,0.00
2018-11-07T02:16:30.262Z,0.00
2018-11-07T02:17:30.225Z,0.00
2018-11-07T02:18:30.203Z,0.00
2018-11-07T02:19:30.317Z,0.00
2018-11-07T02:20:30.137Z,0.00
2018-11-07T02:21:30.108Z,0.00
2018-11-07T02:22:30.079Z,0.00
2018-11-07T02:23:30.050Z,0.00
2018-11-07T02:24:30.022Z,0.00
2018-11-07T02:25:29.991Z,0.00
2018-11-07T02:26:30.025Z,0.00
2018-11-07T02:27:29.933Z,0.00
2018-11-07T02:28:29.907Z,0.00
2018-11-07T02:29:29.873Z,0.00
2018-11-07T02:30:29.855Z,0.00
2018-11-07T02:31:29.816Z,0.00
2018-11-07T02:32:29.797Z,0.00
2018-11-07T02:33:29.758Z,0.00
2018-11-07T02:34:29.745Z,0.00
2018-11-07T02:35:29.706Z,0.00
2018-11-07T02:36:29.671Z,0.00
2018-11-07T02:37:29.640Z,0.00
2018-11-07T02:38:29.611Z,0.00
2018-11-07T02:39:29.582Z,0.00
2018-11-07T02:40:29.553Z,0.00
2018-11-07T02:41:29.523Z,0.00
2018-11-07T02:42:29.494Z,0.00
2018-11-07T02:43:29.465Z,0.00
2018-11-07T02:44:29.437Z,0.00
2018-11-07T02:45:29.405Z,0.00
2018-11-07T02:46:29.382Z,0.00
2018-11-07T02:49:35.991Z,0.00
2018-11-07T02:50:35.759Z,0.00
2018-11-07T02:51:35.729Z,0.00
2018-11-07T02:52:35.700Z,0.00
2018-11-07T02:53:35.799Z,0.00
2018-11-07T02:54:35.641Z,0.00
2018-11-07T02:55:35.611Z,0.00
2018-11-07T02:56:35.591Z,0.00
2018-11-07T02:57:35.554Z,0.00
2018-11-07T02:58:35.523Z,0.00
2018-11-07T02:59:35.493Z,0.00
2018-11-07T03:00:35.464Z,0.00
2018-11-07T03:01:35.438Z,0.00
2018-11-07T03:02:35.403Z,0.00
2018-11-07T03:03:35.375Z,0.00
2018-11-07T03:04:35.345Z,0.00
2018-11-07T03:05:35.316Z,0.00
2018-11-07T03:06:35.289Z,0.00
2018-11-07T03:07:35.261Z,0.00
2018-11-07T03:08:35.228Z,0.00
2018-11-07T03:09:35.199Z,0.00
2018-11-07T03:10:35.250Z,0.00
2018-11-07T03:11:35.139Z,0.00
2018-11-07T03:12:35.111Z,0.00
2018-11-07T03:13:35.081Z,0.00
2018-11-07T03:14:35.051Z,0.00
2018-11-07T03:15:35.021Z,0.00
2018-11-07T03:16:35.000Z,0.00
2018-11-07T03:17:34.963Z,0.00
2018-11-07T03:18:34.936Z,0.00
2018-11-07T03:19:34.903Z,0.00
2018-11-07T03:20:34.873Z,0.00
2018-11-07T03:21:34.845Z,0.00
2018-11-07T03:22:34.814Z,0.00
2018-11-07T03:23:34.787Z,0.00
2018-11-07T03:24:34.918Z,0.00
2018-11-07T03:25:34.726Z,0.00
2018-11-07T03:26:34.698Z,0.00
2018-11-07T03:27:34.670Z,0.00
2018-11-07T03:28:34.655Z,0.00
2018-11-07T03:29:34.610Z,0.00
2018-11-07T03:30:34.580Z,0.00
2018-11-07T03:31:34.549Z,0.00
2018-11-07T03:32:34.521Z,0.00
2018-11-07T03:33:34.496Z,0.00
2018-11-07T03:34:34.462Z,0.00
2018-11-07T03:35:34.436Z,0.00
2018-11-07T03:36:34.403Z,0.00
2018-11-07T03:37:34.374Z,0.00
2018-11-07T03:38:34.344Z,0.00
2018-11-07T03:39:34.315Z,0.00
2018-11-07T03:40:34.285Z,0.00
2018-11-07T03:41:34.255Z,0.00
2018-11-07T03:42:34.224Z,0.00
2018-11-07T03:43:34.204Z,0.00
2018-11-07T03:44:34.170Z,0.00
2018-11-07T03:45:34.138Z,0.00
2018-11-07T03:46:34.107Z,0.00
2018-11-07T03:47:34.082Z,0.00
2018-11-07T03:48:34.049Z,0.00
2018-11-07T03:49:34.018Z,0.00
2018-11-07T03:50:33.989Z,0.00
2018-11-07T03:51:33.960Z,0.00
2018-11-07T03:52:33.932Z,0.00
2018-11-07T03:53:33.905Z,0.00
2018-11-07T03:54:33.871Z,0.00
2018-11-07T03:55:33.842Z,0.00
2018-11-07T03:56:33.815Z,0.00
2018-11-07T03:57:33.787Z,0.00
2018-11-07T03:58:33.753Z,0.00
2018-11-07T03:59:33.727Z,0.00
2018-11-07T04:00:33.696Z,0.00
2018-11-07T04:01:33.665Z,0.00
2018-11-07T04:02:33.636Z,0.00
2018-11-07T04:03:33.606Z,0.00
2018-11-07T04:04:33.633Z,0.00
2018-11-07T04:05:33.550Z,0.00
2018-11-07T04:06:33.520Z,0.00
2018-11-07T04:07:33.486Z,0.00
2018-11-07T04:08:33.461Z,0.00
2018-11-07T04:09:33.438Z,0.00
2018-11-07T04:10:33.400Z,0.00
2018-11-07T04:11:33.370Z,0.00
2018-11-07T04:12:33.345Z,0.00
2018-11-07T04:13:33.311Z,0.00
2018-11-07T04:14:33.284Z,0.00
2018-11-07T04:15:33.253Z,0.00
2018-11-07T04:16:33.222Z,0.00
2018-11-07T04:17:33.193Z,0.00
2018-11-07T04:18:33.163Z,0.00
2018-11-07T04:19:33.134Z,0.00
2018-11-07T04:20:33.103Z,0.00
2018-11-07T04:21:33.076Z,0.00
2018-11-07T04:22:33.045Z,0.00
2018-11-07T04:23:33.018Z,0.00
2018-11-07T04:24:32.990Z,0.00
2018-11-07T04:25:32.958Z,0.00
2018-11-07T04:26:32.929Z,0.00
2018-11-07T04:27:32.904Z,0.00
2018-11-07T04:28:33.027Z,0.00
2018-11-07T04:29:32.840Z,0.00
2018-11-07T04:30:32.810Z,0.00
2018-11-07T04:31:32.781Z,0.00
2018-11-07T04:32:32.752Z,0.00
2018-11-07T04:33:32.722Z,0.00
2018-11-07T04:34:32.692Z,0.00
2018-11-07T04:35:32.663Z,0.00
2018-11-07T04:36:32.647Z,0.00
2018-11-07T04:37:32.632Z,0.00
2018-11-07T04:38:32.575Z,0.00
2018-11-07T04:39:32.571Z,0.00
2018-11-07T04:40:32.516Z,0.00
2018-11-07T04:41:32.487Z,0.00
2018-11-07T04:42:32.456Z,0.00
2018-11-07T04:43:32.427Z,0.00
2018-11-07T04:44:32.398Z,0.00
2018-11-07T04:45:32.369Z,0.00
2018-11-07T04:46:32.339Z,0.00
2018-11-07T04:47:32.311Z,0.00
2018-11-07T04:48:32.280Z,0.00
2018-11-07T04:49:32.250Z,0.00
2018-11-07T04:50:32.220Z,0.00
2018-11-07T04:51:32.192Z,0.00
2018-11-07T04:52:32.163Z,0.00
2018-11-07T04:53:32.137Z,0.00
2018-11-07T04:54:32.103Z,0.00
2018-11-07T04:55:32.078Z,0.00
2018-11-07T04:56:32.048Z,0.00
2018-11-07T04:57:32.017Z,0.00
2018-11-07T04:58:32.028Z,0.00
2018-11-07T04:59:31.962Z,0.00
2018-11-07T05:00:31.931Z,0.00
2018-11-07T05:01:31.899Z,0.00
2018-11-07T05:02:31.871Z,0.00
2018-11-07T05:03:31.839Z,0.00
2018-11-07T05:04:31.812Z,0.00
2018-11-07T05:05:31.787Z,0.00
2018-11-07T05:06:31.755Z,0.00
2018-11-07T05:07:31.722Z,0.00
2018-11-07T05:08:31.753Z,0.00
2018-11-07T05:09:31.668Z,0.00
2018-11-07T05:10:31.639Z,0.00
2018-11-07T05:11:31.608Z,0.00
2018-11-07T05:12:31.577Z,0.00
2018-11-07T05:13:31.546Z,0.00
2018-11-07T05:14:31.520Z,0.00
2018-11-07T05:15:31.490Z,0.00
2018-11-07T05:16:31.461Z,0.00
2018-11-07T05:17:31.428Z,0.00
2018-11-07T05:18:31.398Z,0.00
2018-11-07T05:19:31.426Z,0.00
2018-11-07T05:20:31.340Z,0.00
2018-11-07T05:21:31.315Z,0.00
2018-11-07T05:22:31.280Z,0.00
2018-11-07T05:23:31.256Z,0.00
2018-11-07T05:24:31.222Z,0.00
2018-11-07T05:25:31.193Z,0.00
2018-11-07T05:26:31.162Z,0.00
2018-11-07T05:27:31.135Z,0.00
2018-11-07T05:28:31.104Z,0.00
2018-11-07T05:29:31.084Z,0.00
2018-11-07T05:30:31.045Z,0.00
2018-11-07T05:31:31.016Z,0.00
2018-11-07T05:32:30.987Z,0.00
2018-11-07T05:33:30.965Z,0.00
2018-11-07T05:34:30.928Z,0.00
2018-11-07T05:35:30.899Z,0.00
2018-11-07T05:36:30.869Z,0.00
2018-11-07T05:37:30.846Z,0.00
2018-11-07T05:38:30.813Z,0.00
2018-11-07T05:39:30.781Z,0.00
2018-11-07T05:40:30.752Z,0.00
2018-11-07T05:41:30.723Z,0.00
2018-11-07T05:42:30.696Z,0.00
2018-11-07T05:43:30.665Z,0.00
2018-11-07T05:44:30.634Z,0.00
2018-11-07T05:45:30.608Z,0.00
2018-11-07T05:46:30.577Z,0.00
2018-11-07T05:47:30.546Z,0.00
2018-11-07T05:48:30.517Z,0.00
2018-11-07T05:49:30.488Z,0.00
2018-11-07T05:50:30.457Z,0.00
2018-11-07T05:51:30.429Z,0.00
2018-11-07T05:52:30.402Z,0.00
2018-11-07T05:53:30.371Z,0.00
2018-11-07T05:54:30.342Z,0.00
2018-11-07T05:55:30.312Z,0.00
2018-11-07T05:56:30.283Z,0.00
2018-11-07T05:57:30.254Z,0.00
2018-11-07T05:58:30.223Z,0.00
2018-11-07T05:59:30.194Z,0.00
2018-11-07T06:00:30.168Z,0.00
2018-11-07T06:01:30.135Z,0.00
2018-11-07T06:02:30.110Z,0.00
2018-11-07T06:03:30.085Z,0.00
2018-11-07T06:04:30.055Z,0.00
2018-11-07T06:05:30.019Z,0.00
2018-11-07T06:06:29.989Z,0.00
2018-11-07T06:07:30.809Z,0.00
2018-11-07T06:08:29.929Z,0.00
2018-11-07T06:09:29.902Z,0.00
2018-11-07T06:10:29.872Z,0.00
2018-11-07T06:11:29.844Z,0.00
2018-11-07T06:12:29.813Z,0.00
2018-11-07T06:13:29.789Z,5.63
2018-11-07T06:14:29.753Z,5.63
2018-11-07T06:15:29.724Z,5.63
2018-11-07T06:16:29.700Z,5.63
2018-11-07T06:17:29.669Z,5.63
2018-11-07T06:18:29.635Z,5.63
2018-11-07T06:19:29.606Z,11.25
2018-11-07T06:20:29.577Z,11.25
2018-11-07T06:21:29.548Z,11.25
2018-11-07T06:22:29.518Z,11.25
2018-11-07T06:23:29.489Z,11.25
2018-11-07T06:24:29.538Z,16.88
2018-11-07T06:25:29.431Z,16.88
2018-11-07T06:26:29.400Z,16.88
2018-11-07T06:27:29.371Z,22.50
2018-11-07T06:28:29.341Z,22.50
2018-11-07T06:29:29.315Z,22.50
2018-11-07T06:30:29.282Z,28.13
2018-11-07T06:31:29.252Z,28.13
2018-11-07T06:32:29.235Z,33.75
2018-11-07T06:33:29.198Z,33.75
2018-11-07T06:34:29.180Z,39.38
2018-11-07T06:35:29.145Z,39.38
2018-11-07T06:36:29.105Z,45.00
2018-11-07T06:37:29.077Z,50.63
2018-11-07T06:38:29.046Z,50.63
2018-11-07T06:39:29.018Z,50.63
2018-11-07T06:40:28.987Z,56.25
2018-11-07T06:41:28.957Z,56.25
2018-11-07T06:42:28.927Z,56.25
2018-11-07T06:43:28.907Z,56.25
2018-11-07T06:44:28.874Z,56.25
2018-11-07T06:45:28.840Z,61.88
2018-11-07T06:46:28.809Z,61.88
2018-11-07T06:47:28.783Z,61.88
2018-11-07T06:48:28.751Z,67.50
2018-11-07T06:49:28.722Z,73.13
2018-11-07T06:50:28.691Z,78.75
2018-11-07T06:51:28.671Z,78.75
2018-11-07T06:52:28.632Z,84.38
2018-11-07T06:53:28.602Z,90.00
2018-11-07T06:54:28.577Z,90.00
2018-11-07T06:55:28.543Z,95.63
2018-11-07T06:56:28.516Z,101.25
2018-11-07T06:57:28.489Z,101.25
2018-11-07T06:58:28.454Z,112.50
2018-11-07T06:59:28.429Z,118.13
2018-11-07T07:00:28.395Z,123.75
2018-11-07T07:01:28.436Z,135.00
2018-11-07T07:02:28.334Z,135.00
2018-11-07T07:03:28.305Z,146.25
2018-11-07T07:04:28.276Z,151.88
2018-11-07T07:05:28.247Z,151.88
2018-11-07T07:06:28.217Z,151.88
2018-11-07T07:07:28.187Z,157.50
2018-11-07T07:08:28.158Z,157.50
2018-11-07T07:09:28.128Z,163.13
2018-11-07T07:10:28.099Z,168.75
2018-11-07T07:11:28.068Z,174.38
2018-11-07T07:12:28.039Z,180.00
2018-11-07T07:13:28.010Z,191.25
2018-11-07T07:14:27.988Z,202.50
2018-11-07T07:15:27.951Z,202.50
2018-11-07T07:16:27.921Z,213.75
2018-11-07T07:17:27.923Z,213.75
2018-11-07T07:18:27.939Z,225.00
2018-11-07T07:19:27.833Z,219.38
2018-11-07T07:20:27.804Z,236.25
2018-11-07T07:21:27.773Z,241.88
2018-11-07T07:22:27.744Z,247.50
2018-11-07T07:23:27.714Z,247.50
2018-11-07T07:24:27.687Z,253.13
2018-11-07T07:25:27.685Z,264.38
2018-11-07T07:26:27.626Z,264.38
2018-11-07T07:27:27.596Z,286.88
2018-11-07T07:28:27.571Z,286.88
2018-11-07T07:29:27.538Z,298.13
2018-11-07T07:30:27.571Z,292.50
2018-11-07T07:31:27.479Z,298.13
2018-11-07T07:32:27.449Z,303.75
2018-11-07T07:33:27.480Z,315.00
2018-11-07T07:34:27.391Z,309.38
2018-11-07T07:35:27.361Z,309.38
2018-11-07T07:36:27.332Z,292.50
2018-11-07T07:37:27.303Z,309.38
2018-11-07T07:38:27.280Z,298.13
2018-11-07T07:39:27.246Z,281.25
2018-11-07T07:40:27.215Z,281.25
2018-11-07T07:41:27.190Z,303.75
2018-11-07T07:42:27.156Z,292.50
2018-11-07T07:43:27.126Z,298.13
2018-11-07T07:44:27.098Z,326.25
2018-11-07T07:45:27.089Z,320.63
2018-11-07T07:46:27.038Z,331.88
2018-11-07T07:47:27.012Z,348.75
2018-11-07T07:48:26.980Z,343.13
2018-11-07T07:49:27.058Z,343.13
2018-11-07T07:50:26.931Z,354.38
2018-11-07T07:51:26.899Z,410.63
2018-11-07T07:52:26.876Z,433.13
2018-11-07T07:53:26.841Z,511.88
2018-11-07T07:54:26.809Z,466.88
2018-11-07T07:55:26.777Z,455.63
2018-11-07T07:56:26.750Z,450.00
2018-11-07T07:57:26.723Z,427.50
2018-11-07T07:58:26.689Z,444.38
2018-11-07T07:59:26.665Z,421.88
2018-11-07T08:00:26.632Z,433.13
2018-11-07T08:01:26.603Z,450.00
2018-11-07T08:02:26.573Z,433.13
2018-11-07T08:03:26.544Z,416.25
2018-11-07T08:04:26.516Z,399.38
2018-11-07T08:05:26.488Z,376.88
2018-11-07T08:06:26.458Z,416.25
2018-11-07T08:07:26.431Z,416.25
2018-11-07T08:08:26.401Z,393.75
2018-11-07T08:09:26.373Z,416.25
2018-11-07T08:10:26.352Z,455.63
2018-11-07T08:11:26.317Z,461.25
2018-11-07T08:12:26.286Z,472.50
2018-11-07T08:13:26.303Z,523.13
2018-11-07T08:14:26.228Z,528.75
2018-11-07T08:15:26.207Z,562.50
2018-11-07T08:16:26.171Z,613.13
2018-11-07T08:17:26.143Z,590.63
2018-11-07T08:18:26.115Z,585.00
2018-11-07T08:19:26.084Z,540.00
2018-11-07T08:20:26.057Z,534.38
2018-11-07T08:21:26.073Z,506.25
2018-11-07T08:22:26.010Z,523.13
2018-11-07T08:23:25.970Z,466.88
2018-11-07T08:24:25.943Z,433.13
2018-11-07T08:25:25.915Z,416.25
2018-11-07T08:26:25.884Z,421.88
2018-11-07T08:27:25.864Z,472.50
2018-11-07T08:28:25.830Z,511.88
2018-11-07T08:29:25.806Z,528.75
2018-11-07T08:30:25.773Z,528.75
2018-11-07T08:31:25.745Z,556.88
2018-11-07T08:32:25.714Z,551.25
2018-11-07T08:33:25.685Z,528.75
2018-11-07T08:34:25.658Z,590.63
2018-11-07T08:35:25.628Z,601.88
2018-11-07T08:36:25.602Z,607.50
2018-11-07T08:37:25.571Z,607.50
2018-11-07T08:38:25.544Z,669.38
2018-11-07T08:39:25.514Z,731.25
2018-11-07T08:40:25.486Z,736.88
2018-11-07T08:41:25.458Z,686.25
2018-11-07T08:42:25.541Z,652.50
2018-11-07T08:43:25.401Z,624.38
2018-11-07T08:44:25.376Z,641.25
2018-11-07T08:45:25.346Z,590.63
2018-11-07T08:46:25.319Z,585.00
2018-11-07T08:47:25.287Z,556.88
2018-11-07T08:48:25.263Z,641.25
2018-11-07T08:49:25.237Z,658.13
2018-11-07T08:50:25.203Z,703.13
2018-11-07T08:51:25.181Z,686.25
2018-11-07T08:52:25.148Z,748.13
2018-11-07T08:53:25.125Z,787.50
2018-11-07T08:54:25.091Z,804.38
2018-11-07T08:55:25.066Z,770.63
2018-11-07T08:56:25.036Z,821.25
2018-11-07T08:57:25.008Z,770.63
2018-11-07T08:58:24.992Z,793.13
2018-11-07T08:59:24.952Z,916.88
2018-11-07T09:00:24.935Z,956.25
2018-11-07T09:01:24.950Z,939.38
2018-11-07T09:02:24.872Z,877.50
2018-11-07T09:03:24.842Z,922.50
2018-11-07T09:04:24.814Z,911.25
2018-11-07T09:05:24.789Z,849.38
2018-11-07T09:06:24.763Z,922.50
2018-11-07T09:07:24.731Z,838.13
2018-11-07T09:08:24.707Z,776.25
2018-11-07T09:09:24.679Z,815.63
2018-11-07T09:10:24.655Z,911.25
2018-11-07T09:11:24.629Z,793.13
2018-11-07T09:12:24.596Z,961.88
2018-11-07T09:13:24.569Z,916.88
2018-11-07T09:14:24.591Z,1035.00
2018-11-07T09:15:24.515Z,1170.00
2018-11-07T09:16:24.496Z,1305.00
2018-11-07T09:17:24.462Z,1271.25
2018-11-07T09:18:24.435Z,1226.25
2018-11-07T09:19:24.408Z,1186.88
2018-11-07T09:20:24.387Z,1231.88
2018-11-07T09:21:24.355Z,1243.13
2018-11-07T09:22:24.329Z,1209.38
2018-11-07T09:23:24.303Z,1203.75
2018-11-07T09:24:24.379Z,1198.13
2018-11-07T09:25:24.251Z,1215.00
2018-11-07T09:26:24.241Z,1186.88
2018-11-07T09:27:24.200Z,1237.50
2018-11-07T09:28:24.174Z,1260.00
2018-11-07T09:29:24.202Z,1271.25
2018-11-07T09:30:24.123Z,1276.88
2018-11-07T09:31:24.097Z,1282.50
2018-11-07T09:32:24.073Z,1299.38
2018-11-07T09:33:24.049Z,1299.38
2018-11-07T09:34:24.038Z,1338.75
2018-11-07T09:35:23.997Z,1293.75
2018-11-07T09:36:23.972Z,1293.75
2018-11-07T09:37:23.946Z,1243.13
2018-11-07T09:38:23.922Z,1237.50
2018-11-07T09:39:23.913Z,1130.63
2018-11-07T09:40:23.873Z,1226.25
2018-11-07T09:41:23.851Z,1226.25
2018-11-07T09:42:23.825Z,1271.25
2018-11-07T09:43:23.804Z,1316.25
2018-11-07T09:44:23.775Z,1333.13
2018-11-07T09:45:23.752Z,1378.13
2018-11-07T09:46:23.727Z,1411.88
2018-11-07T09:48:48.206Z,1417.50
2018-11-07T09:49:47.981Z,1372.50
2018-11-07T09:50:47.953Z,1260.00
2018-11-07T09:51:47.931Z,1260.00
2018-11-07T09:52:47.907Z,1355.63
2018-11-07T09:53:47.920Z,1237.50
2018-11-07T09:54:47.860Z,1051.88
2018-11-07T09:55:47.835Z,1085.63
2018-11-07T09:56:47.811Z,1085.63
2018-11-07T09:57:47.786Z,995.63
2018-11-07T09:58:47.762Z,1063.13
2018-11-07T09:59:47.737Z,950.63
2018-11-07T10:00:47.712Z,928.13
2018-11-07T10:01:47.688Z,838.13
2018-11-07T10:02:47.675Z,815.63
2018-11-07T10:03:47.642Z,810.00
2018-11-07T10:04:47.616Z,849.38
2018-11-07T10:05:47.596Z,967.50
2018-11-07T10:06:47.568Z,894.38
2018-11-07T10:07:47.547Z,990.00
2018-11-07T10:08:47.518Z,1074.38
2018-11-07T10:09:47.494Z,1153.13
2018-11-07T10:10:47.469Z,1288.13
2018-11-07T10:11:47.444Z,1215.00
2018-11-07T10:12:47.440Z,1243.13
2018-11-07T10:13:47.395Z,1243.13
2018-11-07T10:14:47.369Z,1282.50
2018-11-07T10:15:47.346Z,1310.63
2018-11-07T10:16:47.328Z,1355.63
2018-11-07T10:17:47.301Z,1282.50
2018-11-07T10:18:47.277Z,1248.75
2018-11-07T10:19:47.252Z,1344.38
2018-11-07T10:20:47.225Z,1288.13
2018-11-07T10:21:47.196Z,1316.25
2018-11-07T10:22:47.172Z,1130.63
2018-11-07T10:23:47.149Z,1209.38
2018-11-07T10:24:47.124Z,1271.25
2018-11-07T10:25:47.102Z,1293.75
2018-11-07T10:26:47.159Z,1321.88
2018-11-07T10:27:47.532Z,1445.63
2018-11-07T10:28:47.338Z,1507.50
2018-11-07T10:29:47.302Z,1591.88
2018-11-07T10:30:46.989Z,1591.88
2018-11-07T10:31:46.954Z,1569.38
2018-11-07T10:32:46.932Z,1513.13
2018-11-07T10:33:46.908Z,1490.63
2018-11-07T10:34:46.888Z,1361.25
2018-11-07T10:35:46.858Z,1226.25
2018-11-07T10:36:46.834Z,1355.63
2018-11-07T10:37:46.821Z,1456.88
2018-11-07T10:38:46.937Z,1406.25
2018-11-07T10:39:46.839Z,1338.75
2018-11-07T10:40:46.739Z,1237.50
2018-11-07T10:41:46.715Z,1141.88
2018-11-07T10:42:46.691Z,1164.38
2018-11-07T10:43:46.696Z,1102.50
2018-11-07T10:44:46.648Z,1175.63
2018-11-07T10:45:46.621Z,1215.00
2018-11-07T10:46:46.598Z,1192.50
2018-11-07T10:47:46.574Z,1293.75
2018-11-07T10:48:46.550Z,1243.13
2018-11-07T10:49:46.531Z,1181.25
2018-11-07T10:50:46.508Z,1271.25
2018-11-07T10:51:46.536Z,1350.00
2018-11-07T10:52:46.456Z,1378.13
2018-11-07T10:53:46.434Z,1406.25
2018-11-07T10:54:46.418Z,1507.50
2018-11-07T10:55:46.396Z,1558.13
2018-11-07T10:56:46.365Z,1501.88
2018-11-07T10:57:46.341Z,1513.13
2018-11-07T10:58:46.317Z,1541.25
2018-11-07T10:59:46.295Z,1400.63
2018-11-07T11:00:46.274Z,1552.50
2018-11-07T11:01:46.252Z,1575.00
2018-11-07T11:02:46.231Z,1552.50
2018-11-07T11:03:46.204Z,1513.13
2018-11-07T11:04:46.185Z,1490.63
2018-11-07T11:05:46.160Z,1468.13
2018-11-07T11:06:46.136Z,1501.88
2018-11-07T11:36:34.542Z,1265.63
2018-11-07T11:37:34.312Z,1170.00
2018-11-07T11:38:34.488Z,1125.00
2018-11-07T11:39:34.465Z,1175.63
2018-11-07T11:40:34.262Z,1215.00
2018-11-07T11:41:34.216Z,1248.75
2018-11-07T11:42:34.193Z,1282.50
2018-11-07T11:43:34.170Z,1305.00
2018-11-07T11:44:34.149Z,1271.25
2018-11-07T11:45:34.148Z,1276.88
2018-11-07T11:46:34.104Z,1327.50
2018-11-07T11:47:34.082Z,1338.75
2018-11-07T11:48:34.062Z,1406.25
2018-11-07T11:49:34.042Z,1153.13
2018-11-07T11:50:34.016Z,1276.88
2018-11-07T11:51:33.995Z,1479.38
2018-11-07T11:52:33.974Z,1518.75
2018-11-07T11:53:33.953Z,1513.13
2018-11-07T11:54:33.933Z,905.63
2018-11-07T11:55:33.909Z,1327.50
2018-11-07T11:56:33.906Z,1597.50
2018-11-07T11:57:33.871Z,1670.63
2018-11-07T11:58:33.844Z,1648.13
2018-11-07T11:59:34.226Z,1513.13
2018-11-07T12:00:33.881Z,1715.63
2018-11-07T12:03:40.444Z,1710.00
2018-11-07T12:04:40.218Z,1676.25
2018-11-07T12:05:40.197Z,1721.25
2018-11-07T12:06:40.175Z,1726.88
2018-11-07T12:07:40.154Z,1771.88
2018-11-07T12:08:40.136Z,1800.00
2018-11-07T12:11:04.832Z,1738.13
2018-11-07T12:12:46.760Z,1732.50
2018-11-07T12:13:46.529Z,1715.63
2018-11-07T12:14:46.507Z,1698.75
2018-11-07T12:15:46.493Z,1693.13
2018-11-07T12:18:11.995Z,1895.63
2018-11-07T12:19:10.956Z,1861.88
2018-11-07T12:20:10.730Z,1755.00
2018-11-07T12:21:10.934Z,1625.63
2018-11-07T12:22:10.689Z,1738.13
2018-11-07T12:23:10.665Z,1721.25
2018-11-07T12:24:10.646Z,1715.63
2018-11-07T12:25:10.623Z,1721.25
2018-11-07T12:26:10.602Z,1665.00
2018-11-07T12:27:10.790Z,1665.00
2018-11-07T12:28:10.763Z,1653.75
2018-11-07T12:29:10.539Z,1631.25
2018-11-07T12:30:10.720Z,1631.25
2018-11-07T12:31:10.495Z,1648.13
2018-11-07T12:32:10.687Z,1625.63
2018-11-07T12:33:10.453Z,1614.38
2018-11-07T12:34:10.636Z,1614.38
2018-11-07T12:35:10.412Z,1603.13
2018-11-07T12:36:10.406Z,1597.50
2018-11-07T12:37:10.572Z,1586.25
2018-11-07T12:38:10.348Z,1586.25
2018-11-07T12:39:10.335Z,1591.88
2018-11-07T12:40:10.319Z,1608.75
2018-11-07T12:41:10.307Z,1591.88
2018-11-07T12:42:10.268Z,1569.38
2018-11-07T12:43:10.452Z,1575.00
2018-11-07T12:44:10.223Z,1563.75
2018-11-07T12:45:10.408Z,1535.63
2018-11-07T12:46:10.387Z,1541.25
2018-11-07T12:47:10.362Z,1603.13
2018-11-07T12:48:10.139Z,1591.88
2018-11-07T12:49:10.319Z,1580.63
2018-11-07T12:50:10.241Z,1580.63
2018-11-07T12:51:10.076Z,1580.63
2018-11-07T12:52:10.055Z,1546.88
2018-11-07T12:53:10.043Z,1563.75
2018-11-07T12:54:10.219Z,1333.13
2018-11-07T12:55:10.205Z,1636.88
2018-11-07T12:56:09.971Z,1642.50
2018-11-07T12:57:10.064Z,1631.25
2018-11-07T12:58:10.046Z,1563.75
2018-11-07T12:59:09.911Z,1569.38
2018-11-07T13:00:10.097Z,1608.75
2018-11-07T13:01:09.866Z,1591.88
2018-11-07T13:02:09.846Z,1597.50
2018-11-07T13:03:09.827Z,1575.00
2018-11-07T13:04:10.006Z,1530.00
2018-11-07T13:05:09.984Z,1513.13
2018-11-07T13:06:10.218Z,1541.25
2018-11-07T13:07:09.942Z,1580.63
2018-11-07T13:08:09.929Z,1563.75
2018-11-07T13:09:09.900Z,1552.50
2018-11-07T13:10:09.677Z,1569.38
2018-11-07T13:11:09.682Z,1597.50
2018-11-07T13:12:09.642Z,1586.25
2018-11-07T13:13:09.613Z,1591.88
2018-11-07T13:14:09.593Z,1580.63
2018-11-07T13:15:09.571Z,1614.38
2018-11-07T13:16:09.753Z,1608.75
2018-11-07T13:17:09.531Z,1603.13
2018-11-07T13:18:09.712Z,1608.75
2018-11-07T13:19:09.491Z,1603.13
2018-11-07T13:20:09.670Z,1597.50
2018-11-07T13:21:09.447Z,1575.00
2018-11-07T13:22:09.653Z,1580.63
2018-11-07T13:23:09.404Z,1552.50
2018-11-07T13:24:09.384Z,1518.75